createdAt,value
2019-06-15T00:00:08.882Z,17.92
2019-06-15T00:01:08.864Z,17.90
2019-06-15T00:02:08.849Z,17.97
2019-06-15T00:03:08.874Z,17.96
2019-06-15T00:04:08.845Z,17.87
2019-06-15T00:05:08.829Z,17.90
2019-06-15T00:06:08.808Z,17.92
2019-06-15T00:07:08.821Z,17.96
2019-06-15T00:08:08.784Z,17.95
2019-06-15T00:09:08.782Z,17.93
2019-06-15T00:10:08.774Z,17.99
2019-06-15T00:11:08.787Z,17.95
2019-06-15T00:12:08.769Z,17.97
2019-06-15T00:13:08.731Z,17.96
2019-06-15T00:14:08.725Z,17.97
2019-06-15T00:15:08.729Z,17.90
2019-06-15T00:16:08.703Z,17.96
2019-06-15T00:17:08.730Z,17.89
2019-06-15T00:18:08.700Z,17.96
2019-06-15T00:19:08.685Z,17.93
2019-06-15T00:20:08.685Z,17.93
2019-06-15T00:21:08.641Z,17.92
2019-06-15T00:22:08.685Z,17.92
2019-06-15T00:23:08.613Z,17.99
2019-06-15T00:24:08.623Z,17.92
2019-06-15T00:25:08.589Z,17.97
2019-06-15T00:26:08.626Z,17.96
2019-06-15T00:27:08.572Z,17.93
2019-06-15T00:28:08.559Z,17.90
2019-06-15T00:29:08.552Z,17.90
2019-06-15T00:30:08.542Z,17.82
2019-06-15T00:31:08.552Z,17.84
2019-06-15T00:32:08.538Z,17.89
2019-06-15T00:33:08.501Z,17.86
2019-06-15T00:34:08.497Z,17.81
2019-06-15T00:35:08.478Z,17.82
2019-06-15T00:36:08.480Z,17.81
2019-06-15T00:37:08.483Z,17.81
2019-06-15T00:38:08.447Z,17.82
2019-06-15T00:39:08.439Z,17.74
2019-06-15T00:40:08.448Z,17.71
2019-06-15T00:41:08.422Z,17.74
2019-06-15T00:42:08.454Z,17.71
2019-06-15T00:43:08.387Z,17.66
2019-06-15T00:44:08.379Z,17.63
2019-06-15T00:45:08.373Z,17.62
2019-06-15T00:46:08.373Z,17.63
2019-06-15T00:47:08.366Z,17.54
2019-06-15T00:48:08.355Z,17.62
2019-06-15T00:49:08.373Z,17.62
2019-06-15T00:50:08.319Z,17.66
2019-06-15T00:51:08.304Z,17.58
2019-06-15T00:52:08.285Z,17.64
2019-06-15T00:53:08.300Z,17.63
2019-06-15T00:54:08.295Z,17.70
2019-06-15T00:55:08.257Z,17.72
2019-06-15T00:56:08.259Z,17.59
2019-06-15T00:57:08.239Z,17.64
2019-06-15T00:58:08.251Z,17.59
2019-06-15T00:59:08.221Z,17.63
2019-06-15T01:00:08.200Z,17.59
2019-06-15T01:01:08.217Z,17.58
2019-06-15T01:02:08.192Z,17.49
2019-06-15T01:03:08.202Z,17.48
2019-06-15T01:04:08.207Z,17.52
2019-06-15T01:05:08.146Z,17.49
2019-06-15T01:06:08.145Z,17.56
2019-06-15T01:07:08.129Z,17.58
2019-06-15T01:08:08.112Z,17.54
2019-06-15T01:09:08.125Z,17.49
2019-06-15T01:10:08.085Z,17.59
2019-06-15T01:11:08.091Z,17.58
2019-06-15T01:12:08.075Z,17.51
2019-06-15T01:13:08.073Z,17.54
2019-06-15T01:14:08.042Z,17.62
2019-06-15T01:15:08.033Z,17.64
2019-06-15T01:16:08.021Z,17.68
2019-06-15T01:17:08.020Z,17.62
2019-06-15T01:18:08.024Z,17.66
2019-06-15T01:19:07.987Z,17.63
2019-06-15T01:20:08.000Z,17.63
2019-06-15T01:21:07.961Z,17.63
2019-06-15T01:22:07.975Z,17.55
2019-06-15T01:23:07.939Z,17.54
2019-06-15T01:24:07.950Z,17.49
2019-06-15T01:25:07.920Z,17.58
2019-06-15T01:26:07.902Z,17.56
2019-06-15T01:27:07.911Z,17.43
2019-06-15T01:28:07.888Z,17.51
2019-06-15T01:29:07.885Z,17.48
2019-06-15T01:30:07.881Z,17.43
2019-06-15T01:31:07.876Z,17.37
2019-06-15T01:32:07.844Z,17.48
2019-06-15T01:33:07.826Z,17.38
2019-06-15T01:34:07.834Z,17.44
2019-06-15T01:35:07.822Z,17.48
2019-06-15T01:36:07.794Z,17.43
2019-06-15T01:37:07.785Z,17.41
2019-06-15T01:38:07.777Z,17.41
2019-06-15T01:39:07.781Z,17.43
2019-06-15T01:40:07.787Z,17.40
2019-06-15T01:41:07.733Z,17.33
2019-06-15T01:42:07.748Z,17.25
2019-06-15T01:43:07.724Z,17.30
2019-06-15T01:44:07.761Z,17.28
2019-06-15T01:45:07.686Z,17.26
2019-06-15T01:46:07.719Z,17.28
2019-06-15T01:47:07.717Z,17.28
2019-06-15T01:48:07.658Z,17.23
2019-06-15T01:49:07.683Z,17.30
2019-06-15T01:50:07.645Z,17.30
2019-06-15T01:51:07.659Z,17.31
2019-06-15T01:52:07.630Z,17.25
2019-06-15T01:53:07.635Z,17.30
2019-06-15T01:54:07.615Z,17.25
2019-06-15T01:55:19.921Z,17.23
2019-06-15T01:56:08.591Z,17.30
2019-06-15T01:57:07.589Z,17.15
2019-06-15T01:58:07.548Z,17.18
2019-06-15T01:59:07.536Z,17.22
2019-06-15T02:00:07.532Z,17.21
2019-06-15T02:01:07.540Z,17.16
2019-06-15T02:02:07.495Z,17.18
2019-06-15T02:03:07.481Z,17.22
2019-06-15T02:04:07.531Z,17.23
2019-06-15T02:05:07.487Z,17.15
2019-06-15T02:06:07.521Z,17.16
2019-06-15T02:07:07.451Z,17.19
2019-06-15T02:08:07.445Z,17.18
2019-06-15T02:09:07.422Z,17.15
2019-06-15T02:10:07.407Z,17.16
2019-06-15T02:11:07.431Z,17.14
2019-06-15T02:12:07.435Z,17.14
2019-06-15T02:13:07.381Z,17.14
2019-06-15T02:14:07.367Z,17.15
2019-06-15T02:15:07.377Z,17.14
2019-06-15T02:16:07.349Z,17.11
2019-06-15T02:17:07.354Z,17.06
2019-06-15T02:18:07.340Z,17.04
2019-06-15T02:19:07.305Z,17.11
2019-06-15T02:20:07.337Z,17.06
2019-06-15T02:21:07.294Z,17.11
2019-06-15T02:22:07.299Z,17.06
2019-06-15T02:23:07.261Z,17.08
2019-06-15T02:24:07.252Z,17.00
2019-06-15T02:25:07.263Z,17.01
2019-06-15T02:26:07.246Z,16.96
2019-06-15T02:27:07.237Z,16.96
2019-06-15T02:28:07.229Z,16.88
2019-06-15T02:29:07.190Z,16.89
2019-06-15T02:30:07.188Z,16.91
2019-06-15T02:31:07.222Z,16.91
2019-06-15T02:32:07.154Z,16.91
2019-06-15T02:33:07.210Z,16.89
2019-06-15T02:34:07.138Z,16.88
2019-06-15T02:35:07.126Z,16.88
2019-06-15T02:36:07.135Z,16.86
2019-06-15T02:37:07.168Z,16.93
2019-06-15T02:38:07.091Z,16.85
2019-06-15T02:39:07.085Z,16.82
2019-06-15T02:40:07.070Z,16.83
2019-06-15T02:41:07.052Z,16.85
2019-06-15T02:42:07.072Z,16.85
2019-06-15T02:45:29.464Z,16.76
2019-06-15T02:46:29.454Z,16.73
2019-06-15T02:47:29.469Z,16.70
2019-06-15T02:48:29.468Z,16.70
2019-06-15T02:49:29.434Z,16.88
2019-06-15T02:50:29.429Z,16.93
2019-06-15T02:51:29.428Z,16.88
2019-06-15T02:52:29.443Z,16.86
2019-06-15T02:53:29.404Z,16.85
2019-06-15T02:54:29.385Z,16.83
2019-06-15T02:55:29.361Z,16.83
2019-06-15T02:56:29.371Z,16.91
2019-06-15T02:57:29.370Z,16.86
2019-06-15T02:58:29.333Z,16.85
2019-06-15T02:59:32.231Z,16.88
2019-06-15T03:00:29.325Z,16.86
2019-06-15T03:01:29.291Z,16.86
2019-06-15T03:02:29.308Z,16.88
2019-06-15T03:03:29.305Z,16.83
2019-06-15T03:04:29.258Z,16.78
2019-06-15T03:05:29.269Z,16.88
2019-06-15T03:06:29.236Z,16.83
2019-06-15T03:07:29.224Z,16.82
2019-06-15T03:08:29.210Z,16.89
2019-06-15T03:09:29.222Z,16.83
2019-06-15T03:10:29.196Z,16.91
2019-06-15T03:11:29.243Z,16.86
2019-06-15T03:12:29.173Z,16.85
2019-06-15T03:13:29.211Z,16.86
2019-06-15T03:14:29.152Z,16.93
2019-06-15T03:15:29.138Z,16.88
2019-06-15T03:16:29.121Z,16.98
2019-06-15T03:17:29.112Z,16.98
2019-06-15T03:18:29.149Z,17.00
2019-06-15T03:19:29.115Z,16.97
2019-06-15T03:20:29.142Z,16.96
2019-06-15T03:21:29.091Z,17.00
2019-06-15T03:22:29.106Z,17.11
2019-06-15T03:23:29.045Z,17.07
2019-06-15T03:24:29.061Z,17.18
2019-06-15T03:25:29.018Z,17.15
2019-06-15T03:26:29.048Z,17.16
2019-06-15T03:27:29.040Z,17.22
2019-06-15T03:28:29.018Z,17.22
2019-06-15T03:29:28.996Z,17.38
2019-06-15T03:30:28.973Z,17.40
2019-06-15T03:31:28.967Z,17.51
2019-06-15T03:32:28.952Z,17.54
2019-06-15T03:33:28.964Z,17.59
2019-06-15T03:34:28.920Z,17.59
2019-06-15T03:35:28.987Z,17.72
2019-06-15T03:36:29.213Z,17.71
2019-06-15T03:37:28.892Z,17.75
2019-06-15T03:38:28.884Z,17.78
2019-06-15T03:39:28.882Z,17.81
2019-06-15T03:40:28.908Z,17.95
2019-06-15T03:41:28.863Z,17.93
2019-06-15T03:42:28.830Z,17.96
2019-06-15T03:43:28.847Z,18.05
2019-06-15T03:44:28.819Z,18.00
2019-06-15T03:45:28.813Z,18.10
2019-06-15T03:46:28.793Z,18.11
2019-06-15T03:47:28.814Z,18.23
2019-06-15T03:48:28.829Z,18.21
2019-06-15T03:49:28.751Z,18.26
2019-06-15T03:50:28.749Z,18.32
2019-06-15T03:51:28.737Z,18.30
2019-06-15T03:52:28.721Z,18.37
2019-06-15T03:53:28.758Z,18.47
2019-06-15T03:54:28.719Z,18.48
2019-06-15T03:55:28.694Z,18.54
2019-06-15T03:56:28.715Z,18.54
2019-06-15T03:57:28.668Z,18.62
2019-06-15T03:58:28.696Z,18.57
2019-06-15T03:59:28.644Z,18.52
2019-06-15T04:00:28.636Z,18.67
2019-06-15T04:01:28.634Z,18.70
2019-06-15T04:02:28.635Z,18.70
2019-06-15T04:03:28.629Z,18.73
2019-06-15T04:04:28.594Z,18.82
2019-06-15T04:05:28.583Z,18.90
2019-06-15T04:06:28.570Z,19.00
2019-06-15T04:07:28.555Z,18.94
2019-06-15T04:08:28.630Z,18.95
2019-06-15T04:09:28.533Z,19.10
2019-06-15T04:10:28.519Z,19.07
2019-06-15T04:11:28.506Z,19.08
2019-06-15T04:12:28.496Z,19.11
2019-06-15T04:13:28.634Z,19.22
2019-06-15T04:14:28.474Z,19.11
2019-06-15T04:15:28.486Z,19.22
2019-06-15T04:16:28.456Z,19.26
2019-06-15T04:17:28.440Z,19.31
2019-06-15T04:18:28.432Z,19.33
2019-06-15T04:19:28.443Z,19.22
2019-06-15T04:20:28.431Z,19.28
2019-06-15T04:21:28.395Z,19.21
2019-06-15T04:22:28.385Z,19.22
2019-06-15T04:23:28.374Z,19.16
2019-06-15T04:24:28.389Z,19.14
2019-06-15T04:25:28.351Z,19.08
2019-06-15T04:26:36.053Z,19.11
2019-06-15T04:27:29.328Z,19.21
2019-06-15T04:28:28.317Z,19.19
2019-06-15T04:29:28.325Z,19.13
2019-06-15T04:30:28.296Z,19.10
2019-06-15T04:31:28.285Z,19.10
2019-06-15T04:32:28.273Z,19.19
2019-06-15T04:33:28.290Z,19.04
2019-06-15T04:34:28.251Z,19.08
2019-06-15T04:35:28.240Z,19.08
2019-06-15T04:36:28.253Z,19.04
2019-06-15T04:37:28.235Z,18.99
2019-06-15T04:38:28.208Z,18.95
2019-06-15T04:39:28.195Z,18.99
2019-06-15T04:40:28.186Z,18.98
2019-06-15T04:41:28.207Z,18.76
2019-06-15T04:42:28.198Z,18.88
2019-06-15T04:43:28.152Z,18.84
2019-06-15T04:44:28.140Z,18.81
2019-06-15T04:45:28.162Z,18.85
2019-06-15T04:46:28.190Z,18.81
2019-06-15T04:47:28.145Z,18.82
2019-06-15T04:48:28.108Z,18.78
2019-06-15T04:49:28.086Z,18.69
2019-06-15T04:50:28.107Z,18.72
2019-06-15T04:51:28.066Z,18.76
2019-06-15T04:52:28.065Z,18.72
2019-06-15T04:53:28.083Z,18.69
2019-06-15T04:54:28.032Z,18.75
2019-06-15T04:55:28.092Z,18.69
2019-06-15T04:56:28.030Z,18.67
2019-06-15T04:57:28.006Z,18.65
2019-06-15T04:58:28.027Z,18.67
2019-06-15T04:59:27.992Z,18.66
2019-06-15T05:00:27.989Z,18.63
2019-06-15T05:01:28.000Z,18.69
2019-06-15T05:02:27.945Z,18.69
2019-06-15T05:03:27.952Z,18.60
2019-06-15T05:04:27.956Z,18.65
2019-06-15T05:05:27.921Z,18.63
2019-06-15T05:06:27.937Z,18.62
2019-06-15T05:07:27.891Z,18.65
2019-06-15T05:08:27.883Z,18.62
2019-06-15T05:09:27.948Z,18.58
2019-06-15T05:10:27.854Z,18.57
2019-06-15T05:11:27.867Z,18.63
2019-06-15T05:12:27.840Z,18.66
2019-06-15T05:13:27.828Z,18.65
2019-06-15T05:14:27.814Z,18.65
2019-06-15T05:15:27.805Z,18.75
2019-06-15T05:16:27.815Z,18.60
2019-06-15T05:17:27.786Z,18.63
2019-06-15T05:18:27.767Z,18.76
2019-06-15T05:19:27.775Z,18.80
2019-06-15T05:20:27.796Z,18.75
2019-06-15T05:21:27.738Z,18.72
2019-06-15T05:22:27.720Z,18.67
2019-06-15T05:23:27.715Z,18.80
2019-06-15T05:24:27.701Z,18.84
2019-06-15T05:25:27.718Z,18.80
2019-06-15T05:26:27.699Z,18.78
2019-06-15T05:27:27.685Z,18.76
2019-06-15T05:28:27.666Z,18.91
2019-06-15T05:29:27.676Z,18.94
2019-06-15T05:30:27.639Z,18.98
2019-06-15T05:31:27.634Z,18.95
2019-06-15T05:32:27.615Z,18.98
2019-06-15T05:33:27.608Z,18.98
2019-06-15T05:34:27.615Z,19.08
2019-06-15T05:35:27.579Z,19.07
2019-06-15T05:36:27.622Z,19.10
2019-06-15T05:37:27.556Z,19.16
2019-06-15T05:38:27.552Z,19.23
2019-06-15T05:39:27.559Z,19.28
2019-06-15T05:40:27.531Z,19.23
2019-06-15T05:41:27.550Z,19.31
2019-06-15T05:42:27.507Z,19.31
2019-06-15T05:43:27.493Z,19.25
2019-06-15T05:44:27.511Z,19.31
2019-06-15T05:45:27.492Z,19.22
2019-06-15T05:46:27.456Z,19.31
2019-06-15T05:47:27.469Z,19.31
2019-06-15T05:48:27.442Z,19.29
2019-06-15T05:49:27.425Z,19.40
2019-06-15T05:50:27.466Z,19.37
2019-06-15T05:51:27.401Z,19.31
2019-06-15T05:52:27.404Z,19.47
2019-06-15T05:53:27.457Z,19.43
2019-06-15T05:54:27.377Z,19.51
2019-06-15T05:55:27.386Z,19.66
2019-06-15T05:56:27.348Z,19.71
2019-06-15T05:57:27.366Z,19.74
2019-06-15T05:58:27.323Z,19.69
2019-06-15T05:59:27.325Z,19.81
2019-06-15T06:00:27.326Z,19.94
2019-06-15T06:01:27.308Z,19.96
2019-06-15T06:02:27.285Z,19.96
2019-06-15T06:03:27.286Z,20.10
2019-06-15T06:04:27.269Z,20.13
2019-06-15T06:05:27.280Z,20.08
2019-06-15T06:06:27.237Z,20.16
2019-06-15T06:07:27.229Z,20.28
2019-06-15T06:08:27.214Z,20.70
2019-06-15T06:09:27.213Z,21.14
2019-06-15T06:10:27.218Z,21.59
2019-06-15T06:11:27.185Z,21.75
2019-06-15T06:12:27.189Z,22.00
2019-06-15T06:13:27.163Z,22.00
2019-06-15T06:14:27.146Z,22.18
2019-06-15T06:15:27.182Z,22.27
2019-06-15T06:16:27.153Z,22.58
2019-06-15T06:17:27.133Z,22.51
2019-06-15T06:18:27.116Z,22.64
2019-06-15T06:19:27.096Z,22.90
2019-06-15T06:20:27.080Z,23.15
2019-06-15T06:21:27.093Z,23.42
2019-06-15T06:22:27.064Z,23.55
2019-06-15T06:23:27.049Z,23.83
2019-06-15T06:24:27.094Z,24.00
2019-06-15T06:25:27.044Z,23.87
2019-06-15T06:26:27.042Z,23.83
2019-06-15T06:27:36.153Z,23.83
2019-06-15T06:28:28.037Z,24.06
2019-06-15T06:29:27.031Z,24.24
2019-06-15T06:30:30.138Z,24.34
2019-06-15T06:31:26.985Z,24.34
2019-06-15T06:32:26.948Z,24.39
2019-06-15T06:33:26.959Z,24.52
2019-06-15T06:34:26.975Z,24.53
2019-06-15T06:35:26.915Z,24.35
2019-06-15T06:36:26.927Z,24.39
2019-06-15T06:37:26.893Z,24.24
2019-06-15T06:38:26.884Z,24.35
2019-06-15T06:39:26.895Z,24.49
2019-06-15T06:40:26.909Z,24.50
2019-06-15T06:41:26.853Z,24.55
2019-06-15T06:42:26.840Z,24.78
2019-06-15T06:43:26.857Z,25.05
2019-06-15T06:44:26.816Z,25.17
2019-06-15T06:45:26.809Z,25.18
2019-06-15T06:46:26.823Z,25.14
2019-06-15T06:47:26.813Z,25.25
2019-06-15T06:48:26.772Z,25.39
2019-06-15T06:49:26.761Z,25.33
2019-06-15T06:50:26.750Z,25.55
2019-06-15T06:51:26.767Z,25.72
2019-06-15T06:52:26.728Z,25.79
2019-06-15T06:53:26.719Z,25.61
2019-06-15T06:54:26.706Z,25.38
2019-06-15T06:55:26.696Z,25.45
2019-06-15T06:56:26.712Z,25.65
2019-06-15T06:57:26.674Z,25.82
2019-06-15T06:58:26.677Z,25.77
2019-06-15T06:59:26.652Z,25.82
2019-06-15T07:00:26.643Z,25.88
2019-06-15T07:01:26.653Z,25.76
2019-06-15T07:02:26.620Z,25.87
2019-06-15T07:03:26.637Z,25.79
2019-06-15T07:04:26.602Z,25.73
2019-06-15T07:05:26.589Z,25.97
2019-06-15T07:06:26.577Z,26.32
2019-06-15T07:07:26.564Z,26.36
2019-06-15T07:08:26.575Z,26.43
2019-06-15T07:09:26.546Z,26.35
2019-06-15T07:10:26.560Z,26.43
2019-06-15T07:11:26.522Z,26.52
2019-06-15T07:12:26.537Z,26.65
2019-06-15T07:13:26.527Z,26.84
2019-06-15T07:14:26.496Z,27.14
2019-06-15T07:15:26.514Z,27.32
2019-06-15T07:16:26.469Z,27.34
2019-06-15T07:17:26.484Z,27.50
2019-06-15T07:18:26.477Z,27.59
2019-06-15T07:19:26.437Z,27.69
2019-06-15T07:20:26.452Z,27.87
2019-06-15T07:21:26.427Z,27.92
2019-06-15T07:22:26.405Z,27.92
2019-06-15T07:23:26.422Z,27.99
2019-06-15T07:24:26.409Z,27.99
2019-06-15T07:25:26.372Z,27.96
2019-06-15T07:26:26.382Z,27.81
2019-06-15T07:27:26.351Z,27.79
2019-06-15T07:28:26.381Z,27.85
2019-06-15T07:29:26.329Z,28.04
2019-06-15T07:30:26.318Z,27.96
2019-06-15T07:31:26.306Z,28.02
2019-06-15T07:32:26.297Z,28.07
2019-06-15T07:33:26.410Z,27.99
2019-06-15T07:34:26.300Z,27.94
2019-06-15T07:35:26.275Z,28.11
2019-06-15T07:36:26.254Z,28.07
2019-06-15T07:37:26.246Z,28.34
2019-06-15T07:38:26.236Z,28.37
2019-06-15T07:39:26.269Z,28.36
2019-06-15T07:40:26.218Z,28.39
2019-06-15T07:41:26.201Z,28.22
2019-06-15T07:42:26.189Z,28.33
2019-06-15T07:43:26.183Z,27.90
2019-06-15T07:44:26.223Z,28.04
2019-06-15T07:45:26.164Z,28.19
2019-06-15T07:46:26.155Z,28.24
2019-06-15T07:47:26.138Z,28.30
2019-06-15T07:48:26.125Z,28.37
2019-06-15T07:49:26.141Z,28.59
2019-06-15T07:50:26.148Z,28.71
2019-06-15T07:51:26.110Z,28.67
2019-06-15T07:52:26.085Z,28.81
2019-06-15T07:53:26.075Z,29.00
2019-06-15T07:54:26.064Z,28.96
2019-06-15T07:55:26.092Z,29.00
2019-06-15T07:56:26.042Z,28.96
2019-06-15T07:57:26.031Z,29.08
2019-06-15T07:58:26.021Z,29.24
2019-06-15T07:59:26.009Z,29.34
2019-06-15T08:00:26.023Z,29.52
2019-06-15T08:01:25.989Z,29.49
2019-06-15T08:02:25.984Z,29.19
2019-06-15T08:03:25.974Z,29.06
2019-06-15T08:04:25.991Z,29.02
2019-06-15T08:05:25.958Z,28.95
2019-06-15T08:06:25.934Z,29.06
2019-06-15T08:07:25.949Z,29.09
2019-06-15T08:08:25.916Z,29.14
2019-06-15T08:09:25.926Z,29.27
2019-06-15T08:10:25.893Z,29.31
2019-06-15T08:11:25.880Z,29.46
2019-06-15T08:12:25.917Z,29.33
2019-06-15T08:13:25.915Z,29.23
2019-06-15T08:14:25.853Z,29.26
2019-06-15T08:15:25.839Z,29.27
2019-06-15T08:16:25.857Z,29.09
2019-06-15T08:17:25.846Z,29.08
2019-06-15T08:18:25.831Z,29.15
2019-06-15T08:19:25.796Z,29.09
2019-06-15T08:20:25.784Z,29.05
2019-06-15T08:21:25.778Z,29.14
2019-06-15T08:22:25.794Z,29.18
2019-06-15T08:23:25.754Z,28.89
2019-06-15T08:24:25.742Z,28.88
2019-06-15T08:25:25.732Z,28.85
2019-06-15T08:26:25.749Z,28.86
2019-06-15T08:27:25.710Z,29.00
2019-06-15T08:28:39.597Z,29.05
2019-06-15T08:29:26.692Z,29.06
2019-06-15T08:30:25.682Z,29.09
2019-06-15T08:31:25.700Z,29.00
2019-06-15T08:32:25.683Z,29.16
2019-06-15T08:33:25.673Z,29.21
2019-06-15T08:34:25.640Z,29.19
2019-06-15T08:35:25.625Z,29.18
2019-06-15T08:36:25.616Z,29.27
2019-06-15T08:37:25.631Z,29.27
2019-06-15T08:38:25.622Z,29.06
2019-06-15T08:39:25.694Z,29.05
2019-06-15T08:40:25.572Z,28.95
2019-06-15T08:41:25.605Z,29.04
2019-06-15T08:42:25.551Z,28.52
2019-06-15T08:43:25.540Z,28.67
2019-06-15T08:44:25.645Z,29.04
2019-06-15T08:45:25.520Z,29.15
2019-06-15T08:46:25.576Z,29.21
2019-06-15T08:47:25.505Z,29.26
2019-06-15T08:48:25.516Z,29.19
2019-06-15T08:49:25.477Z,29.24
2019-06-15T08:50:25.471Z,29.31
2019-06-15T08:51:25.483Z,29.27
2019-06-15T08:52:25.447Z,29.31
2019-06-15T08:53:25.486Z,29.41
2019-06-15T08:54:25.497Z,29.51
2019-06-15T08:55:25.414Z,29.57
2019-06-15T08:56:25.408Z,29.65
2019-06-15T08:57:25.393Z,29.64
2019-06-15T08:58:25.414Z,29.61
2019-06-15T08:59:25.417Z,29.67
2019-06-15T09:00:25.483Z,29.61
2019-06-15T09:01:25.352Z,29.74
2019-06-15T09:02:25.380Z,29.79
2019-06-15T09:03:25.332Z,29.68
2019-06-15T09:04:25.319Z,29.71
2019-06-15T09:05:25.345Z,29.71
2019-06-15T09:06:25.335Z,29.64
2019-06-15T09:07:25.291Z,29.76
2019-06-15T09:08:25.277Z,29.73
2019-06-15T09:09:25.267Z,29.68
2019-06-15T09:10:25.275Z,29.85
2019-06-15T09:11:25.277Z,29.92
2019-06-15T09:12:25.234Z,29.80
2019-06-15T09:13:25.227Z,29.71
2019-06-15T09:14:25.224Z,29.58
2019-06-15T09:15:25.205Z,29.65
2019-06-15T09:16:25.870Z,29.79
2019-06-15T09:17:25.185Z,29.76
2019-06-15T09:18:25.173Z,29.64
2019-06-15T09:19:25.204Z,29.67
2019-06-15T09:20:25.152Z,29.74
2019-06-15T09:21:25.161Z,29.97
2019-06-15T09:22:25.135Z,30.07
2019-06-15T09:23:25.123Z,30.08
2019-06-15T09:24:25.115Z,30.01
2019-06-15T09:25:25.100Z,30.15
2019-06-15T09:26:25.128Z,29.71
2019-06-15T09:27:25.081Z,29.64
2019-06-15T09:28:25.073Z,29.11
2019-06-15T09:29:25.059Z,28.64
2019-06-15T09:30:25.078Z,28.29
2019-06-15T09:31:25.039Z,28.06
2019-06-15T09:32:25.070Z,27.70
2019-06-15T09:33:25.016Z,27.65
2019-06-15T09:34:25.004Z,27.47
2019-06-15T09:35:24.995Z,27.31
2019-06-15T09:36:25.011Z,27.29
2019-06-15T09:37:24.975Z,27.14
2019-06-15T09:38:24.963Z,27.19
2019-06-15T09:39:24.952Z,27.19
2019-06-15T09:40:24.971Z,27.03
2019-06-15T09:41:24.931Z,27.07
2019-06-15T09:42:24.919Z,26.94
2019-06-15T09:43:24.911Z,26.80
2019-06-15T09:44:24.897Z,26.80
2019-06-15T09:45:24.916Z,26.75
2019-06-15T09:46:24.878Z,26.75
2019-06-15T09:47:24.868Z,26.72
2019-06-15T09:48:24.857Z,26.82
2019-06-15T09:49:24.850Z,26.82
2019-06-15T09:50:24.862Z,26.73
2019-06-15T09:51:24.833Z,26.65
2019-06-15T09:52:24.813Z,26.62
2019-06-15T09:53:24.880Z,26.60
2019-06-15T09:54:27.911Z,26.52
2019-06-15T09:55:24.783Z,26.36
2019-06-15T09:56:24.774Z,26.35
2019-06-15T09:57:24.761Z,26.33
2019-06-15T09:58:24.797Z,26.30
2019-06-15T09:59:26.381Z,26.32
2019-06-15T10:00:24.728Z,26.28
2019-06-15T10:01:24.742Z,26.28
2019-06-15T10:02:24.712Z,26.32
2019-06-15T10:03:24.762Z,26.28
2019-06-15T10:04:24.684Z,26.10
2019-06-15T10:05:24.679Z,25.98
2019-06-15T10:06:24.713Z,25.99
2019-06-15T10:07:24.656Z,25.87
2019-06-15T10:08:24.665Z,25.90
2019-06-15T10:09:24.632Z,25.88
2019-06-15T10:10:24.619Z,25.91
2019-06-15T10:11:24.612Z,25.99
2019-06-15T10:12:24.598Z,25.92
2019-06-15T10:13:24.616Z,25.75
2019-06-15T10:14:24.576Z,25.79
2019-06-15T10:15:24.620Z,25.69
2019-06-15T10:16:24.603Z,25.64
2019-06-15T10:17:24.544Z,25.69
2019-06-15T10:18:24.535Z,25.46
2019-06-15T10:19:24.522Z,25.40
2019-06-15T10:20:24.564Z,25.30
2019-06-15T10:21:24.527Z,25.20
2019-06-15T10:22:24.492Z,25.13
2019-06-15T10:23:24.481Z,24.99
2019-06-15T10:24:24.469Z,24.90
2019-06-15T10:25:24.458Z,24.87
2019-06-15T10:26:24.489Z,24.78
2019-06-15T10:27:24.438Z,24.76
2019-06-15T10:28:24.506Z,24.73
2019-06-15T10:29:24.416Z,24.57
2019-06-15T10:30:24.403Z,24.61
2019-06-15T10:31:24.420Z,24.69
2019-06-15T10:32:24.390Z,24.80
2019-06-15T10:33:24.463Z,24.77
2019-06-15T10:34:24.361Z,25.15
2019-06-15T10:35:24.349Z,25.62
2019-06-15T10:36:24.340Z,25.76
2019-06-15T10:37:24.329Z,25.82
2019-06-15T10:38:24.343Z,25.94
2019-06-15T10:39:24.307Z,26.01
2019-06-15T10:40:24.333Z,25.97
2019-06-15T10:41:24.287Z,25.92
2019-06-15T10:42:24.302Z,25.79
2019-06-15T10:43:24.304Z,25.98
2019-06-15T10:44:24.320Z,26.47
2019-06-15T10:45:24.264Z,26.85
2019-06-15T10:46:24.694Z,27.09
2019-06-15T10:47:24.247Z,27.28
2019-06-15T10:48:24.211Z,27.32
2019-06-15T10:49:24.211Z,27.55
2019-06-15T10:50:24.212Z,27.63
2019-06-15T10:51:24.191Z,27.66
2019-06-15T10:52:24.170Z,27.67
2019-06-15T10:53:24.215Z,27.46
2019-06-15T10:54:24.154Z,27.50
2019-06-15T10:55:24.163Z,27.43
2019-06-15T10:56:24.134Z,27.51
2019-06-15T10:57:24.121Z,27.66
2019-06-15T10:58:24.174Z,27.70
2019-06-15T10:59:24.814Z,27.60
2019-06-15T11:00:24.117Z,27.51
2019-06-15T11:01:24.125Z,27.59
2019-06-15T11:02:24.061Z,27.78
2019-06-15T11:03:24.052Z,27.88
2019-06-15T11:04:24.053Z,28.04
2019-06-15T11:05:24.068Z,28.02
2019-06-15T11:06:24.068Z,28.06
2019-06-15T11:07:24.010Z,28.25
2019-06-15T11:08:23.996Z,28.22
2019-06-15T11:09:23.993Z,28.31
2019-06-15T11:10:24.006Z,28.19
2019-06-15T11:11:23.972Z,27.93
2019-06-15T11:12:23.979Z,28.31
2019-06-15T11:13:24.027Z,27.94
2019-06-15T11:14:24.030Z,27.72
2019-06-15T11:15:23.932Z,27.28
2019-06-15T11:16:23.935Z,27.10
2019-06-15T11:17:23.902Z,27.04
2019-06-15T11:18:23.897Z,27.31
2019-06-15T11:19:23.881Z,27.75
2019-06-15T11:20:23.872Z,27.51
2019-06-15T11:21:23.897Z,27.34
2019-06-15T11:22:23.852Z,27.13
2019-06-15T11:23:23.857Z,26.81
2019-06-15T11:24:23.826Z,26.76
2019-06-15T11:25:23.818Z,26.52
2019-06-15T11:26:23.864Z,26.43
2019-06-15T11:27:23.796Z,26.30
2019-06-15T11:28:23.785Z,26.10
2019-06-15T11:29:23.773Z,25.98
2019-06-15T11:30:23.764Z,25.83
2019-06-15T11:31:23.788Z,25.77
2019-06-15T11:32:23.742Z,25.70
2019-06-15T11:33:23.749Z,25.57
2019-06-15T11:34:23.757Z,25.60
2019-06-15T11:35:23.750Z,25.54
2019-06-15T11:36:23.697Z,25.55
2019-06-15T11:37:23.686Z,25.42
2019-06-15T11:38:23.676Z,25.36
2019-06-15T11:39:23.702Z,25.39
2019-06-15T11:40:23.653Z,25.35
2019-06-15T11:41:23.645Z,25.35
2019-06-15T11:42:23.634Z,25.28
2019-06-15T11:43:23.621Z,25.35
2019-06-15T11:44:23.639Z,25.36
2019-06-15T11:45:23.600Z,25.43
2019-06-15T11:46:23.652Z,25.43
2019-06-15T11:47:23.580Z,25.54
2019-06-15T11:48:23.570Z,25.64
2019-06-15T11:49:23.587Z,25.77
2019-06-15T11:50:23.574Z,25.80
2019-06-15T11:51:23.544Z,26.18
2019-06-15T11:52:23.525Z,26.29
2019-06-15T11:53:23.522Z,26.29
2019-06-15T11:54:23.512Z,25.95
2019-06-15T11:55:36.161Z,26.02
2019-06-15T11:56:24.503Z,25.88
2019-06-15T11:57:23.471Z,26.17
2019-06-15T11:58:23.462Z,26.40
2019-06-15T11:59:23.450Z,26.39
2019-06-15T12:00:31.100Z,26.69
2019-06-15T12:01:24.427Z,26.81
2019-06-15T12:02:23.417Z,26.70
2019-06-15T12:03:23.409Z,26.67
2019-06-15T12:04:23.394Z,26.58
2019-06-15T12:05:23.421Z,26.50
2019-06-15T12:06:23.391Z,26.36
2019-06-15T12:07:23.365Z,26.18
2019-06-15T12:08:23.384Z,26.07
2019-06-15T12:09:23.401Z,25.88
2019-06-15T12:10:23.344Z,25.61
2019-06-15T12:11:23.324Z,25.43
2019-06-15T12:12:23.334Z,25.25
2019-06-15T12:13:23.938Z,25.14
2019-06-15T12:14:23.312Z,25.05
2019-06-15T12:15:23.310Z,24.88
2019-06-15T12:16:23.265Z,24.77
2019-06-15T12:17:23.272Z,24.76
2019-06-15T12:18:23.271Z,24.71
2019-06-15T12:19:23.237Z,24.62
2019-06-15T12:20:23.231Z,24.61
2019-06-15T12:21:23.215Z,24.64
2019-06-15T12:22:23.229Z,24.68
2019-06-15T12:23:23.247Z,24.73
2019-06-15T12:24:23.199Z,24.88
2019-06-15T12:25:23.264Z,24.96
2019-06-15T12:26:23.164Z,25.03
2019-06-15T12:27:23.202Z,25.05
2019-06-15T12:28:23.138Z,25.17
2019-06-15T12:29:23.126Z,25.23
2019-06-15T12:30:23.158Z,25.25
2019-06-15T12:31:23.115Z,25.28
2019-06-15T12:32:23.108Z,25.69
2019-06-15T12:33:23.128Z,26.02
2019-06-15T12:34:23.071Z,26.21
2019-06-15T12:35:23.064Z,26.45
2019-06-15T12:36:23.065Z,26.73
2019-06-15T12:37:23.044Z,26.81
2019-06-15T12:38:23.055Z,26.95
2019-06-15T12:39:23.017Z,26.95
2019-06-15T12:40:23.086Z,26.94
2019-06-15T12:41:23.030Z,26.97
2019-06-15T12:42:22.985Z,26.81
2019-06-15T12:43:22.979Z,26.80
2019-06-15T12:44:23.004Z,26.60
2019-06-15T12:45:22.952Z,26.43
2019-06-15T12:46:22.944Z,26.29
2019-06-15T12:47:22.933Z,25.91
2019-06-15T12:48:22.955Z,25.85
2019-06-15T12:49:22.944Z,25.65
2019-06-15T12:50:22.907Z,25.43
2019-06-15T12:51:22.887Z,25.24
2019-06-15T12:52:22.886Z,25.24
2019-06-15T12:53:22.892Z,25.21
2019-06-15T12:54:22.896Z,25.14